Accueil
METAR-TAF:

METAR-TAF

Aéroports :

Aéroport de Kuujjuaq

Kuujjuaq, Québec, Canada

latitude: 58-06N, longitude: 068-25W, altitude: 37 m

Observation

Le bulletin a été fait il y a 44 minutes, à 06:00 UTC
Vent 2 kt de nord
Température -16°C
Humidité 92%
Pression 1025 hPa
Visibilité: 24.1 km
Ciel clair

METAR: CYVP 240600Z 36002KT 15SM SKC M16/M17 A3027 RMK SLP257

Heure: 02:44 (06:44 UTC)

Prévision

Le bulletin a été fait il y a 1 heure et 6 minutes, à 05:38 UTC
Prévision valable du 24 à 06 UTC au 24 à 18 UTC
Vent 3 kt de direction variable
Visibilité: 10 km
Quelques nuages à une hauteur de 2000 ft
Evoluant progressivement
du 24 à 16 UTC au 24 à 18 UTC
Vent 8 kt de sud/sud-est

TAF: CYVP 240538Z 2406/2418 VRB03KT P6SM FEW020 BECMG 2416/2418 16008KT RMK NXT FCST BY 241200Z

Observations et prévisions météorologiques de plus de 4000 aéroports (messages METAR et TAF).

Les stations disponibles sont représentées par des disques jaunes et rouges sur la carte.

Passer la souris dessus pour voir le nom de la station.

Cliquer dessus pour voir les observations et prévisions météorologiques.

Pour changer de carte: cliquez sur les boutons verts avec une croix noire pour zoomer, sur le bouton vert avec un tiret pour effectuer un zoom arrière, ou sur les flèches vertes pour les cartes adjacentes.


METAR-TAF: